Belvidere, NC (27919)

1:44 PM EDT on August 22, 2014 (GMT -0400)
Holiday Island Road | Change Station
CLOSE
Current Station
Personal Weather Station
Location: Hertford, NC
Elevation: 10 ft
Nearby Weather Stations

Elev 10 ft 36.12 °N, 76.45 °W | Updated 2 minutes ago

Clear
Clear
85.6 °F
Feels Like 95 °F
N
1.0
Wind Variable Wind from West
Gusts 2.0 mph

Today
High -- | Low -- °F
--% Chance of Precip.
Yesterday
High -- | Low -- °F
Precip. -- in
6:29 AM 7:47 PM
Waning Crescent, 7% visible
Pressure 29.96 in
Visibility 10.0 miles
Clouds Clear
Heat Index 95 °F
Dew Point 76 °F
Humidity 72%
Rainfall 0.27 in
Snow Depth Not available.
UV 11 out of 12
Pollen 8.40 out of 12
Air Quality Not available.
Flu Activity Not available.
METAR KECG 221654Z 35005KT 10SM CLR 30/22 A2996 RMK AO2 SLP146 T03000217

More Conditions Fewer Conditions

Pressure 29.96 in
Visibility 10.0 miles
Clouds Clear
Heat Index 95 °F
Dew Point 76 °F
Humidity 72%
Rainfall 0.27 in
Snow Depth Not available.
UV 11 out of 12
Pollen 8.40 out of 12
Air Quality Not available.
Flu Activity Not available.
METAR KECG 221654Z 35005KT 10SM CLR 30/22 A2996 RMK AO2 SLP146 T03000217

More Conditions Fewer Conditions

10-Day Weather Forecast

Almanac

Astronomy

Aug. 22, 2014 Rise Set
Actual Time 6:29 AM EDT 7:47 PM EDT
Civil Twilight 6:02 AM EDT 8:14 PM EDT
Nautical Twilight 5:30 AM EDT 8:46 PM EDT
Astronomical Twilight 4:57 AM EDT 9:19 PM EDT
Moon 3:52 AM EDT 5:53 PM EDT
Length of Visible Light 14h 11m
Length of Day
13h 18m
Tomorrow will be 2m 7s shorter.
Waning Crescent, 7% of the Moon is Illuminated
Today
Waning Crescent
Aug 25
New
Sep 2
First Quarter
Sep 8
Full
Sep 15
Last Quarter

Today's Extremes

State Highs State Lows

Community

WunderPhotos

Upload Photos

1,746,206 photos uploaded!

WunderBlogs® & News

Nearby

Snow Depth

Station Depth Elevation
No new snow has been reported.

Earthquake Activity

City Distance Mag. Time & Date
No recent earthquake activity has been reported nearby.
Minimum magnitude displayed is 2.5.

Coastal Water Temperatures

Place Temperature
Oregon Inlet Marina, NC 82.9 °F
Duck Pier, NC 79.0 °F
Hatteras, NC 82.9 °F
Money Point, VA 86.0 °F
Sewells Point, VA 81.0 °F
Chesapeake Bay Bridge Tunnel, VA 80.1 °F

Nearby Weather Stations